»·PEaware :: N475RS KSAN-KPHX

N475RS :: KSAN-KPHX

FLIGHT INFORMATION

Flight Status: Arrived
Operator: Privately registered:
United States
More flights under this callsign
Pilot: Aker J. (16898)
Aircraft: BEECH AIRCRAFT SUPER KING AIR COMMUTER
(BE20)
More flights by this aircraft type
Origin: KSAN San Diego Intl-Lindbergh
United States
Destination: KPHX Phoenix Sky Harbor Intl
United States
More flights between these airports :: More routes between these airports
Route: +ZZOOO1 IPL HYDRR1
File this flight plan on PilotEdge
Remarks: hawker 850
Altitude:
(Current/Filed)
37,000ft
Speed:
(Current/Filed)
350kts
Departed: 30-Dec-17 04:04 PM
Arrived: 30-Dec-17 05:11 PM
Distance/Time
Traveled:
263nm/1:07
Distance/Time
To Go:
Arrived

Flight Plot

Page will automatically refresh every two minutes.

Flight plan parsing failed; only flown route is shown


Map Options




Map Legend


Flown Route
Filed Route
Departure Airport
Arrival Airport
Navaid (VOR, NDB)
Fix

Horizontal Profiles

Position Reports

Time Latitude Longitude Heading Altitude Ground
Speed
30-Dec-17 15:49 32.732724 -117.196961 88 20ft 0kts
30-Dec-17 15:50 32.732724 -117.196959 88 20ft 0kts
30-Dec-17 15:51 32.732724 -117.196957 88 20ft 0kts
30-Dec-17 15:52 32.732724 -117.196956 88 20ft 0kts
30-Dec-17 15:53 32.732724 -117.196956 88 20ft 0kts
30-Dec-17 15:54 32.732724 -117.196956 88 20ft 0kts
30-Dec-17 15:55 32.732724 -117.196956 88 20ft 0kts
30-Dec-17 15:56 32.732724 -117.196956 88 20ft 0kts
30-Dec-17 15:57 32.732724 -117.196956 88 20ft 0kts
30-Dec-17 15:58 32.732724 -117.196956 88 20ft 0kts
30-Dec-17 15:59 32.732724 -117.196956 88 20ft 0kts
30-Dec-17 16:00 32.732724 -117.196956 88 20ft 0kts
30-Dec-17 16:01 32.732724 -117.196956 88 20ft 0kts
30-Dec-17 16:02 32.732724 -117.196956 88 20ft 0kts
30-Dec-17 16:03 32.732724 -117.196956 88 20ft 0kts
30-Dec-17 16:04 32.734137 -117.196024 102 20ft 17kts
30-Dec-17 16:05 32.732689 -117.189920 105 20ft 20kts
30-Dec-17 16:06 32.731007 -117.182820 105 20ft 23kts
30-Dec-17 16:07 32.729691 -117.176342 70 20ft 0kts
30-Dec-17 16:08 32.729691 -117.176340 70 20ft 0kts
30-Dec-17 16:09 32.730476 -117.176928 286 20ft 32kts
30-Dec-17 16:10 32.738550 -117.209825 286 507ft 131kts
30-Dec-17 16:11 32.741135 -117.220540 285 1096ft 144kts
30-Dec-17 16:12 32.753520 -117.271035 289 1337ft 171kts
30-Dec-17 16:13 32.722742 -117.307311 154 1015ft 219kts
30-Dec-17 16:14 32.677756 -117.272883 151 2134ft 189kts
30-Dec-17 16:15 32.632337 -117.232695 110 3587ft 254kts
30-Dec-17 16:16 32.621019 -117.145296 93 3905ft 222kts
30-Dec-17 16:17 32.617088 -117.088946 95 5999ft 227kts
30-Dec-17 16:18 32.611461 -117.022633 95 8706ft 210kts
30-Dec-17 16:19 32.605981 -116.959671 97 11326ft 179kts
30-Dec-17 16:20 32.609133 -116.890501 75 12172ft 253kts
30-Dec-17 16:21 32.623110 -116.810860 78 13361ft 249kts
30-Dec-17 16:22 32.635341 -116.717988 84 14339ft 322kts
30-Dec-17 16:23 32.645838 -116.614245 85 15551ft 288kts
30-Dec-17 16:24 32.654221 -116.529167 86 17087ft 231kts
30-Dec-17 16:25 32.660759 -116.461047 87 18249ft 203kts
30-Dec-17 16:26 32.667558 -116.388455 86 19200ft 242kts
30-Dec-17 16:27 32.675907 -116.299984 86 20144ft 299kts
30-Dec-17 16:28 32.686174 -116.190775 85 21071ft 369kts
30-Dec-17 16:29 32.698486 -116.059857 85 21987ft 427kts
30-Dec-17 16:30 32.714040 -115.918386 82 22883ft 420kts
30-Dec-17 16:31 32.730558 -115.784980 85 23771ft 398kts
30-Dec-17 16:32 32.740776 -115.653361 87 24948ft 410kts
30-Dec-17 16:33 32.746986 -115.515472 88 26549ft 425kts
30-Dec-17 16:34 32.751379 -115.373798 88 28148ft 433kts
30-Dec-17 16:35 32.754978 -115.230275 88 29749ft 433kts
30-Dec-17 16:36 32.758155 -115.086882 88 30008ft 431kts
30-Dec-17 16:37 32.760998 -114.948268 88 29508ft 410kts
30-Dec-17 16:38 32.763655 -114.814935 88 28946ft 397kts
30-Dec-17 16:39 32.767027 -114.684577 88 28152ft 394kts
30-Dec-17 16:40 32.772461 -114.554636 86 27350ft 392kts
30-Dec-17 16:41 32.781491 -114.425872 84 26552ft 391kts
30-Dec-17 16:42 32.795971 -114.298002 81 25754ft 391kts
30-Dec-17 16:43 32.818123 -114.171294 76 25090ft 388kts
30-Dec-17 16:44 32.849877 -114.051187 69 25042ft 393kts
30-Dec-17 16:45 32.899555 -113.925004 61 25062ft 449kts
30-Dec-17 16:46 32.966223 -113.802727 51 25061ft 417kts
30-Dec-17 16:47 33.006105 -113.748261 44 25062ft 396kts
30-Dec-17 16:48 33.089475 -113.670472 36 25056ft 367kts
30-Dec-17 16:49 33.092810 -113.561938 106 24903ft 345kts
30-Dec-17 16:50 33.068009 -113.447582 106 23985ft 371kts
30-Dec-17 16:51 33.042602 -113.328288 99 22249ft 364kts
30-Dec-17 16:52 33.097327 -113.230390 26 19148ft 383kts
30-Dec-17 16:53 33.186905 -113.171230 35 17142ft 347kts
30-Dec-17 16:54 33.253466 -113.096812 59 15164ft 314kts
30-Dec-17 16:55 33.274456 -113.002293 85 13452ft 292kts
30-Dec-17 16:56 33.278567 -112.906159 89 11450ft 287kts
30-Dec-17 16:57 33.279578 -112.863113 89 11036ft 267kts
30-Dec-17 16:58 33.285063 -112.778401 85 11017ft 269kts
30-Dec-17 16:59 33.293871 -112.679860 84 10908ft 307kts
30-Dec-17 17:00 33.303256 -112.579326 84 10044ft 301kts
30-Dec-17 17:01 33.312392 -112.480609 83 9173ft 295kts
30-Dec-17 17:02 33.320772 -112.389120 83 9007ft 253kts
30-Dec-17 17:03 33.328350 -112.306138 83 9016ft 252kts
30-Dec-17 17:04 33.335954 -112.222444 83 9012ft 251kts
30-Dec-17 17:05 33.343428 -112.139637 83 9009ft 248kts
30-Dec-17 17:06 33.346873 -112.058020 90 8440ft 238kts
30-Dec-17 17:07 33.346219 -111.980144 91 7505ft 234kts
30-Dec-17 17:08 33.366175 -111.908103 54 6373ft 227kts
30-Dec-17 17:09 33.398439 -111.847672 87 4994ft 211kts
30-Dec-17 17:10 33.390940 -111.779633 100 3683ft 200kts
30-Dec-17 17:11 33.417431 -111.766129 305 4149ft 169kts
30-Dec-17 17:12 33.431072 -111.820659 254 3530ft 172kts
30-Dec-17 17:13 33.428609 -111.874195 267 3097ft 176kts
30-Dec-17 17:14 33.429067 -111.928773 268 2218ft 142kts
30-Dec-17 17:15 33.428928 -111.972019 269 1563ft 137kts
30-Dec-17 17:16 33.428826 -112.015836 270 1140ft 98kts
30-Dec-17 17:17 33.427798 -112.021504 102 1140ft 9kts
30-Dec-17 17:18 33.426942 -112.016186 123 1140ft 8kts
30-Dec-17 17:19 33.426924 -112.016153 123 1140ft 0kts
30-Dec-17 17:20 33.426924 -112.016153 123 1140ft 0kts
30-Dec-17 17:21 33.426924 -112.016153 123 1140ft 0kts
30-Dec-17 17:22 33.426924 -112.016153 123 1140ft 0kts
30-Dec-17 17:23 33.426924 -112.016153 123 1140ft 0kts
30-Dec-17 17:24 33.426924 -112.016153 123 1140ft 0kts
30-Dec-17 17:25 33.426924 -112.016153 123 1140ft 0kts
30-Dec-17 17:26 33.426924 -112.016153 123 1140ft 0kts
30-Dec-17 17:27 33.426924 -112.016153 123 1140ft 0kts
30-Dec-17 17:28 33.426924 -112.016153 123 1140ft 0kts
30-Dec-17 17:29 33.426924 -112.016153 123 1140ft 0kts
30-Dec-17 17:30 33.426924 -112.016153 123 1140ft 0kts
30-Dec-17 17:31 33.426924 -112.016153 123 1140ft 0kts
30-Dec-17 17:32 33.426924 -112.016153 123 1140ft 0kts

Navigation Log

Ident Type
Flight plan parsing failed, navigation log unavailable